Morton, MN (56270)

5:24 PM CST on December 08, 2016 (GMT -0600)
Redwood Falls Municipal | | Change Station

Elev 1024 ft 44.55 °N, 95.08 °W | Updated 31 minutes ago

Mostly Cloudy
Mostly Cloudy
15 °F
Feels Like 2 °F
N
12
Wind Variable Wind from NW

Today
High -- | Low -- °F
--% Chance of Precip.
Yesterday
High -- | Low -- °F
Precip. -- in
Pressure 30.59 in
Visibility 9.0 miles
Clouds Mostly Cloudy 1600 ft
Overcast 2100 ft
Windchill 2 °F
Dew Point 8 °F
Humidity 74%
Rainfall 0.00 in
Snow Depth Not available.
7:44 AM 4:39 PM
Waxing Gibbous, 68% visible
METAR KRWF 082253Z AUTO 31010KT 9SM BKN016 OVC021 M09/M13 A3053 RMK AO2 SNB23E51 SLP358 P0000 T10941133
Pressure 30.59 in
Visibility 9.0 miles
Clouds Mostly Cloudy 1600 ft
Overcast 2100 ft
Windchill 2 °F
Dew Point 8 °F
Humidity 74%
Rainfall 0.00 in
Snow Depth Not available.
7:44 AM 4:39 PM
Waxing Gibbous, 68% visible
METAR KRWF 082253Z AUTO 31010KT 9SM BKN016 OVC021 M09/M13 A3053 RMK AO2 SNB23E51 SLP358 P0000 T10941133

10-Day Weather Forecast

Almanac

Astronomy

Dec. 08, 2016 Rise Set
Actual Time
Civil Twilight
Nautical Twilight
Astronomical Twilight
Moon
Length of Visible Light
Length of Day
Tomorrow will be .
, % of the Moon is Illuminated

Today's Extremes

State Highs State Lows

Community

WunderPhotos

Upload Photos

1,956,277 photos uploaded!

WunderBlog® & News

Nearby

Air Quality

  Air Quality AQ Index Pollutant
Not available.

Snow Depth

Station Depth Elevation

Earthquake Activity

City Distance Mag. Time & Date
Minimum magnitude displayed is 2.5.

Coastal Water Temperatures

Place Temperature

Stations

Nearby Weather Stations

Station Location Temp. Windchill Dew Point Humidity Wind Precip. Elev Updated Type
                   

Watches & Warnings

There are currently no watches in effect.